Oakwood, GA

2:42 PM EDT on July 05, 2015 (GMT -0400)
Hideaway Bay Marina | | Change Station
CLOSE
Current Station
Personal Weather Station
Location: Flowery Branch, GA
Elevation: 1109 ft
Nearby Weather Stations

Elev 1109 ft 34.18 °N, 83.94 °W | Updated 26 seconds ago

Mostly Cloudy
Mostly Cloudy
79.9 °F
Feels Like 83 °F
N
8.1
Wind Variable Wind from SW
Gusts 14.0 mph

Today
High -- | Low -- °F
--% Chance of Precip.
Yesterday
High -- | Low -- °F
Precip. -- in
6:29 AM 8:50 PM
Waning Gibbous, 83% visible
Pressure 30.10 in
Visibility 10.0 miles
Clouds Scattered Clouds 2500 ft
Scattered Clouds 3200 ft
Mostly Cloudy 4500 ft
Heat Index 83 °F
Dew Point 68 °F
Humidity 68%
Rainfall 0.00 in
Snow Depth Not available.
UV 9.1 out of 12
Pollen .50 out of 12
Air Quality Not available.
Flu Activity Not available.
METAR KGVL 051753Z AUTO 26010G20KT 10SM SCT025 SCT032 BKN045 26/19 A3015 RMK AO2 SLP193 60000 T02560189 10256 20206 56005

More Conditions Fewer Conditions

Pressure 30.10 in
Visibility 10.0 miles
Clouds Scattered Clouds 2500 ft
Scattered Clouds 3200 ft
Mostly Cloudy 4500 ft
Heat Index 83 °F
Dew Point 68 °F
Humidity 68%
Rainfall 0.00 in
Snow Depth Not available.
UV 9.1 out of 12
Pollen .50 out of 12
Air Quality Not available.
Flu Activity Not available.
METAR KGVL 051753Z AUTO 26010G20KT 10SM SCT025 SCT032 BKN045 26/19 A3015 RMK AO2 SLP193 60000 T02560189 10256 20206 56005

More Conditions Fewer Conditions

10-Day Weather Forecast

×

Almanac

Astronomy

Jul. 05, 2015 Rise Set
Actual Time
Civil Twilight
Nautical Twilight
Astronomical Twilight
Moon
Length of Visible Light
Length of Day
Tomorrow will be .
, % of the Moon is Illuminated

Today's Extremes

State Highs State Lows

Community

WunderPhotos

Upload Photos

1,835,346 photos uploaded!

WunderBlogs® & News

Nearby

Air Quality

  Air Quality AQ Index Pollutant
Not available.

Snow Depth

Station Depth Elevation

Earthquake Activity

City Distance Mag. Time & Date
Minimum magnitude displayed is 2.5.

Coastal Water Temperatures

Place Temperature

Stations

Nearby Weather Stations

Station Location Temp. Windchill Dew Point Humidity Wind Precip. Elev Updated Type
                   
Flood Watch / Flood Statement
Statement as of 2:39 PM EDT on July 05, 2015

... Flash Flood Watch is cancelled...

The Flash Flood Watch for portions of east central Georgia...
north central Georgia... northeast Georgia... northwest Georgia and
west central Georgia has been cancelled. Scattered showers and
thunderstorms are expected through the remainder of the
afternoon... but flash flooding is not expected.